createdAt,value
2022-12-19T00:00:15.238Z,7.75
2022-12-19T00:01:13.754Z,7.764
2022-12-19T00:02:14.788Z,7.789
2022-12-19T00:03:13.542Z,7.800
2022-12-19T00:04:14.604Z,7.806
2022-12-19T00:05:13.837Z,7.806
2022-12-19T00:06:13.836Z,7.810
2022-12-19T00:07:13.723Z,7.835
2022-12-19T00:08:17.366Z,7.835
2022-12-19T00:09:14.458Z,7.841
2022-12-19T00:10:13.447Z,7.912
2022-12-19T00:11:14.033Z,7.894
2022-12-19T00:12:19.045Z,7.910
2022-12-19T00:13:13.468Z,8.008
2022-12-19T00:14:13.483Z,7.961
2022-12-19T00:15:14.138Z,7.920
2022-12-19T00:16:13.466Z,7.934
2022-12-19T00:17:14.023Z,7.918
2022-12-19T00:18:13.451Z,7.945
2022-12-19T00:19:13.634Z,7.929
2022-12-19T00:20:16.600Z,7.882
2022-12-19T00:21:14.388Z,7.900
2022-12-19T00:22:13.286Z,7.905
2022-12-19T00:23:13.523Z,7.872
2022-12-19T00:24:21.083Z,7.866
2022-12-19T00:25:14.170Z,7.894
2022-12-19T00:26:13.528Z,7.929
2022-12-19T00:27:13.778Z,7.925
2022-12-19T00:28:13.772Z,7.960
2022-12-19T00:29:14.583Z,7.949
2022-12-19T00:30:14.813Z,7.960
2022-12-19T00:31:13.043Z,7.969
2022-12-19T00:32:13.404Z,7.994
2022-12-19T00:33:13.265Z,8.010
2022-12-19T00:34:13.027Z,8.010
2022-12-19T00:35:13.312Z,7.994
2022-12-19T00:36:13.557Z,7.994
2022-12-19T00:37:13.392Z,7.974
2022-12-19T00:38:13.359Z,7.980
2022-12-19T00:39:13.834Z,7.974
2022-12-19T00:40:14.345Z,8
2022-12-19T00:41:13.656Z,8.039
2022-12-19T00:42:13.654Z,8.024
2022-12-19T00:43:14.003Z,7.994
2022-12-19T00:44:13.016Z,8.010
2022-12-19T00:45:13.148Z,7.949
2022-12-19T00:46:13.231Z,8
2022-12-19T00:47:13.743Z,8.010
2022-12-19T00:48:14.149Z,7.974
2022-12-19T00:49:14.232Z,7.940
2022-12-19T00:50:13.658Z,7.920
2022-12-19T00:51:13.657Z,7.914
2022-12-19T00:52:13.946Z,7.925
2022-12-19T00:53:14.372Z,7.920
2022-12-19T00:54:13.207Z,7.894
2022-12-19T00:55:18.714Z,7.844
2022-12-19T00:56:13.737Z,7.874
2022-12-19T00:57:14.027Z,7.888
2022-12-19T00:58:13.328Z,7.882
2022-12-19T00:59:13.589Z,7.920
2022-12-19T01:00:14.112Z,7.945
2022-12-19T01:01:16.076Z,7.934
2022-12-19T01:02:14.167Z,7.940
2022-12-19T01:03:13.488Z,7.945
2022-12-19T01:04:30.805Z,8.034
2022-12-19T01:05:13.336Z,8.095
2022-12-19T01:06:13.482Z,8.060
2022-12-19T01:07:13.336Z,8.064
2022-12-19T01:08:13.740Z,8.055
2022-12-19T01:09:13.673Z,8.050
2022-12-19T01:10:13.901Z,8.060
2022-12-19T01:11:13.205Z,8.060
2022-12-19T01:12:13.894Z,8.034
2022-12-19T01:13:14.097Z,8.074
2022-12-19T01:14:17.381Z,8.079
2022-12-19T01:15:14.188Z,8.069
2022-12-19T01:16:13.183Z,8.104
2022-12-19T01:17:13.809Z,8.109
2022-12-19T01:18:13.929Z,8.109
2022-12-19T01:19:14.195Z,8.119
2022-12-19T01:20:13.658Z,8.114
2022-12-19T01:21:14.228Z,8.114
2022-12-19T01:22:13.531Z,8.159
2022-12-19T01:23:13.097Z,8.199
2022-12-19T01:24:13.667Z,8.229
2022-12-19T01:25:14.344Z,8.244
2022-12-19T01:26:13.215Z,8.265
2022-12-19T01:27:13.419Z,8.274
2022-12-19T01:28:13.707Z,8.265
2022-12-19T01:29:14.026Z,8.340
2022-12-19T01:30:14.328Z,8.300
2022-12-19T01:31:13.879Z,8.423
2022-12-19T01:32:14.107Z,8.609
2022-12-19T01:33:13.544Z,8.722
2022-12-19T01:34:13.846Z,8.626
2022-12-19T01:35:21.141Z,8.512
2022-12-19T01:36:13.217Z,8.412
2022-12-19T01:37:13.325Z,8.333
2022-12-19T01:38:13.193Z,8.305
2022-12-19T01:39:12.809Z,8.284
2022-12-19T01:40:13.454Z,8.305
2022-12-19T01:41:13.603Z,8.333
2022-12-19T01:42:14.061Z,8.333
2022-12-19T01:43:14.558Z,8.310
2022-12-19T01:44:14.091Z,8.338
2022-12-19T01:45:14.065Z,8.479
2022-12-19T01:46:13.320Z,8.555
2022-12-19T01:47:14.150Z,8.479
2022-12-19T01:48:13.217Z,8.444
2022-12-19T01:49:13.138Z,8.439
2022-12-19T01:50:13.773Z,8.439
2022-12-19T01:51:14.156Z,8.484
2022-12-19T01:52:20.775Z,8.574
2022-12-19T01:53:13.630Z,8.609
2022-12-19T01:54:13.731Z,8.590
2022-12-19T01:55:14.366Z,8.579
2022-12-19T01:56:13.982Z,8.579
2022-12-19T01:57:13.362Z,8.609
2022-12-19T01:58:13.426Z,8.604
2022-12-19T01:59:13.246Z,8.595
2022-12-19T02:00:14.521Z,8.614
2022-12-19T02:01:14.288Z,8.642
2022-12-19T02:02:13.583Z,8.689
2022-12-19T02:03:13.983Z,8.710
2022-12-19T02:04:13.795Z,8.725
2022-12-19T02:05:14.333Z,8.774
2022-12-19T02:06:13.484Z,8.784
2022-12-19T02:07:16.230Z,8.789
2022-12-19T02:08:13.874Z,8.784
2022-12-19T02:09:13.461Z,8.774
2022-12-19T02:10:14.067Z,8.800
2022-12-19T02:11:13.571Z,8.826
2022-12-19T02:12:13.886Z,8.821
2022-12-19T02:13:13.976Z,8.845
2022-12-19T02:14:13.308Z,8.861
2022-12-19T02:15:14.256Z,8.868
2022-12-19T02:16:13.396Z,8.895
2022-12-19T02:17:14.106Z,8.925
2022-12-19T02:18:13.131Z,8.925
2022-12-19T02:19:13.370Z,8.965
2022-12-19T02:20:18.764Z,8.949
2022-12-19T02:21:13.998Z,8.960
2022-12-19T02:22:19.158Z,8.979
2022-12-19T02:23:14.200Z,9.024
2022-12-19T02:24:13.580Z,9.029
2022-12-19T02:25:14.022Z,9.020
2022-12-19T02:26:13.056Z,9.005
2022-12-19T02:27:13.632Z,8.975
2022-12-19T02:28:13.730Z,9.005
2022-12-19T02:29:13.192Z,9.069
2022-12-19T02:30:14.041Z,9.100
2022-12-19T02:31:17.554Z,9.085
2022-12-19T02:32:13.310Z,9.085
2022-12-19T02:33:13.799Z,9.055
2022-12-19T02:34:14.061Z,9.079
2022-12-19T02:35:13.695Z,9.090
2022-12-19T02:36:13.458Z,9.085
2022-12-19T02:37:14.019Z,9.069
2022-12-19T02:38:13.521Z,9.074
2022-12-19T02:39:14.050Z,9.095
2022-12-19T02:40:13.369Z,9.114
2022-12-19T02:41:13.777Z,9.126
2022-12-19T02:42:13.676Z,9.137
2022-12-19T02:43:14.038Z,9.142
2022-12-19T02:44:14.201Z,9.178
2022-12-19T02:45:13.669Z,9.180
2022-12-19T02:46:13.260Z,9.138
2022-12-19T02:47:14.197Z,9.090
2022-12-19T02:48:17.675Z,9.114
2022-12-19T02:49:15.633Z,9.090
2022-12-19T02:50:13.718Z,9.218
2022-12-19T02:51:13.599Z,9.380
2022-12-19T02:52:13.842Z,9.378
2022-12-19T02:53:14.130Z,9.295
2022-12-19T02:54:13.224Z,9.279
2022-12-19T02:55:13.669Z,9.317
2022-12-19T02:56:13.771Z,9.312
2022-12-19T02:57:13.259Z,9.266
2022-12-19T02:58:13.414Z,7
2022-12-19T02:59:13.424Z,9.265
2022-12-19T03:00:14.591Z,9.284
2022-12-19T03:01:14.621Z,9.274
2022-12-19T03:02:13.870Z,9.305
2022-12-19T03:03:13.289Z,9.289
2022-12-19T03:04:14.192Z,9.333
2022-12-19T03:05:13.629Z,9.326
2022-12-19T03:06:13.647Z,9.338
2022-12-19T03:07:13.791Z,9.338
2022-12-19T03:08:12.998Z,9.333
2022-12-19T03:09:13.357Z,9.366
2022-12-19T03:10:13.829Z,9.379
2022-12-19T03:11:13.919Z,9.420
2022-12-19T03:12:17.264Z,9.439
2022-12-19T03:13:13.954Z,9.425
2022-12-19T03:14:14.113Z,9.425
2022-12-19T03:15:13.617Z,9.430
2022-12-19T03:16:13.664Z,9.425
2022-12-19T03:17:13.877Z,9.435
2022-12-19T03:18:13.696Z,9.439
2022-12-19T03:19:13.873Z,9.449
2022-12-19T03:20:13.402Z,9.435
2022-12-19T03:21:14.179Z,9.425
2022-12-19T03:22:13.502Z,9.409
2022-12-19T03:23:13.367Z,9.409
2022-12-19T03:24:13.570Z,9.409
2022-12-19T03:25:14.003Z,9.397
2022-12-19T03:26:13.328Z,9.395
2022-12-19T03:27:13.914Z,9.404
2022-12-19T03:28:13.025Z,9.430
2022-12-19T03:29:13.388Z,9.465
2022-12-19T03:30:13.672Z,9.520
2022-12-19T03:31:13.828Z,9.529
2022-12-19T03:32:13.312Z,9.555
2022-12-19T03:33:13.573Z,9.560
2022-12-19T03:34:13.932Z,9.545
2022-12-19T03:35:13.186Z,9.564
2022-12-19T03:36:13.538Z,9.590
2022-12-19T03:37:14.018Z,9.642
2022-12-19T03:38:13.260Z,9.654
2022-12-19T03:39:13.576Z,9.800
2022-12-19T03:40:13.840Z,9.774
2022-12-19T03:41:14.184Z,9.720
2022-12-19T03:42:13.244Z,9.725
2022-12-19T03:43:13.743Z,9.744
2022-12-19T03:44:13.458Z,9.739
2022-12-19T03:45:13.992Z,9.739
2022-12-19T03:46:13.038Z,9.739
2022-12-19T03:47:13.493Z,9.766
2022-12-19T03:48:13.587Z,9.777
2022-12-19T03:49:13.802Z,9.760
2022-12-19T03:50:14.231Z,9.779
2022-12-19T03:51:13.883Z,9.810
2022-12-19T03:52:13.070Z,9.793
2022-12-19T03:53:13.388Z,9.795
2022-12-19T03:54:13.636Z,9.815
2022-12-19T03:55:13.200Z,9.838
2022-12-19T03:56:13.562Z,9.850
2022-12-19T03:57:13.850Z,9.857
2022-12-19T03:58:14.104Z,9.850
2022-12-19T03:59:13.299Z,9.895
2022-12-19T04:00:14.253Z,9.930
2022-12-19T04:01:13.917Z,9.925
2022-12-19T04:02:13.530Z,9.935
2022-12-19T04:03:14.232Z,9.925
2022-12-19T04:04:13.661Z,9.944
2022-12-19T04:05:14.082Z,9.960
2022-12-19T04:06:13.397Z,9.918
2022-12-19T04:07:13.976Z,9.975
2022-12-19T04:08:14.219Z,9.979
2022-12-19T04:09:17.948Z,9.939
2022-12-19T04:10:14.305Z,9.979
2022-12-19T04:11:13.642Z,9.975
2022-12-19T04:12:14.152Z,9.984
2022-12-19T04:13:13.230Z,10.02
2022-12-19T04:14:13.271Z,10.00
2022-12-19T04:15:13.817Z,9.965
2022-12-19T04:16:14.310Z,10.02
2022-12-19T04:17:13.448Z,10.04
2022-12-19T04:18:14.184Z,10.02
2022-12-19T04:19:13.327Z,9.984
2022-12-19T04:20:14.023Z,9.989
2022-12-19T04:21:13.535Z,10.01
2022-12-19T04:22:13.964Z,10.04
2022-12-19T04:23:12.936Z,10.06
2022-12-19T04:24:13.430Z,10.03
2022-12-19T04:25:14.290Z,10.04
2022-12-19T04:26:13.419Z,10.10
2022-12-19T04:27:13.838Z,10.11
2022-12-19T04:28:13.105Z,10.11
2022-12-19T04:29:13.176Z,10.10
2022-12-19T04:30:13.780Z,10.13
2022-12-19T04:31:14.017Z,10.18
2022-12-19T04:32:13.217Z,10.22
2022-12-19T04:33:13.223Z,10.15
2022-12-19T04:34:13.453Z,10.12
2022-12-19T04:35:14.153Z,10.11
2022-12-19T04:36:13.333Z,10.16
2022-12-19T04:37:13.845Z,10.19
2022-12-19T04:38:14.176Z,10.19
2022-12-19T04:39:13.306Z,10.17
2022-12-19T04:40:13.420Z,10.21
2022-12-19T04:41:13.938Z,10.19
2022-12-19T04:42:13.400Z,10.24
2022-12-19T04:43:13.418Z,10.30
2022-12-19T04:44:13.852Z,10.34
2022-12-19T04:45:13.632Z,10.37
2022-12-19T04:46:14.073Z,10.32
2022-12-19T04:47:13.875Z,10.33
2022-12-19T04:48:13.974Z,10.34
2022-12-19T04:49:13.315Z,10.36
2022-12-19T04:50:13.654Z,10.39
2022-12-19T04:51:14.059Z,10.37
2022-12-19T04:52:14.091Z,10.38
2022-12-19T04:53:13.770Z,10.44
2022-12-19T04:54:13.816Z,10.42
2022-12-19T04:55:14.393Z,10.37
2022-12-19T04:56:13.555Z,10.36
2022-12-19T04:57:21.829Z,10.44
2022-12-19T04:58:17.636Z,10.42
2022-12-19T04:59:13.496Z,10.44
2022-12-19T05:00:14.623Z,10.51
2022-12-19T05:01:14.445Z,10.56
2022-12-19T05:02:14.322Z,10.61
2022-12-19T05:03:21.874Z,10.62
2022-12-19T05:04:14.221Z,10.64
2022-12-19T05:05:13.547Z,10.62
2022-12-19T05:06:13.607Z,10.63
2022-12-19T05:07:14.052Z,10.67
2022-12-19T05:08:13.194Z,10.71
2022-12-19T05:09:13.646Z,10.70
2022-12-19T05:10:14.421Z,10.70
2022-12-19T05:11:19.198Z,10.75
2022-12-19T05:12:13.807Z,10.77
2022-12-19T05:13:14.090Z,10.78
2022-12-19T05:14:13.469Z,10.76
2022-12-19T05:15:27.937Z,10.74
2022-12-19T05:16:13.300Z,10.75
2022-12-19T05:17:14.034Z,10.80
2022-12-19T05:18:14.011Z,10.78
2022-12-19T05:19:14.676Z,10.83
2022-12-19T05:20:14.118Z,10.87
2022-12-19T05:21:13.366Z,10.85
2022-12-19T05:22:13.586Z,10.84
2022-12-19T05:23:17.898Z,10.90
2022-12-19T05:24:13.424Z,10.93
2022-12-19T05:25:14.469Z,10.92
2022-12-19T05:26:13.874Z,10.90
2022-12-19T05:27:14.168Z,10.86
2022-12-19T05:28:13.352Z,10.86
2022-12-19T05:29:13.769Z,10.83
2022-12-19T05:30:14.177Z,10.84
2022-12-19T05:31:13.206Z,10.80
2022-12-19T05:32:13.828Z,10.85
2022-12-19T05:33:13.100Z,10.90
2022-12-19T05:34:14.083Z,10.86
2022-12-19T05:35:13.704Z,10.85
2022-12-19T05:36:13.810Z,10.80
2022-12-19T05:37:13.227Z,10.82
2022-12-19T05:38:13.502Z,10.76
2022-12-19T05:39:13.176Z,10.71
2022-12-19T05:40:13.481Z,10.77
2022-12-19T05:41:13.773Z,10.79
2022-12-19T05:42:14.033Z,10.82
2022-12-19T05:43:13.400Z,10.88
2022-12-19T05:44:14.072Z,10.86
2022-12-19T05:45:13.222Z,10.77
2022-12-19T05:46:13.350Z,10.80
2022-12-19T05:47:13.562Z,10.81
2022-12-19T05:48:13.974Z,10.81
2022-12-19T05:49:13.055Z,10.85
2022-12-19T05:50:14.194Z,10.89
2022-12-19T05:51:13.418Z,10.87
2022-12-19T05:52:13.498Z,10.88
2022-12-19T05:53:14.232Z,10.88
2022-12-19T05:54:13.940Z,10.91
2022-12-19T05:55:14.480Z,10.88
2022-12-19T05:56:13.707Z,10.89
2022-12-19T05:57:13.655Z,10.93
2022-12-19T05:58:13.466Z,10.93
2022-12-19T05:59:13.852Z,10.97
2022-12-19T06:00:14.267Z,11.01
2022-12-19T06:01:14.716Z,11.02
2022-12-19T06:02:13.861Z,10.97
2022-12-19T06:03:14.291Z,10.98
2022-12-19T06:04:14.626Z,11.03
2022-12-19T06:05:15.170Z,11.07
2022-12-19T06:06:14.324Z,11.06
2022-12-19T06:07:19.328Z,11.10
2022-12-19T06:08:13.926Z,11.13
2022-12-19T06:09:14.456Z,11.16
2022-12-19T06:10:13.918Z,11.19
2022-12-19T06:11:13.480Z,11.21
2022-12-19T06:12:13.660Z,11.23
2022-12-19T06:13:13.663Z,11.19
2022-12-19T06:14:13.316Z,11.25
2022-12-19T06:15:14.815Z,11.26
2022-12-19T06:16:14.250Z,11.26
2022-12-19T06:17:14.701Z,11.30
2022-12-19T06:18:13.465Z,11.28
2022-12-19T06:19:14.331Z,11.31
2022-12-19T06:20:14.037Z,11.34
2022-12-19T06:21:13.944Z,11.35
2022-12-19T06:22:13.608Z,11.38
2022-12-19T06:23:13.950Z,11.39
2022-12-19T06:24:13.651Z,11.40
2022-12-19T06:25:13.812Z,11.43
2022-12-19T06:26:19.130Z,11.46
2022-12-19T06:27:14.020Z,11.48
2022-12-19T06:28:13.915Z,11.45
2022-12-19T06:29:13.313Z,11.44
2022-12-19T06:30:14.084Z,11.48
2022-12-19T06:31:13.961Z,11.5
2022-12-19T06:32:13.466Z,11.52
2022-12-19T06:33:13.942Z,11.56
2022-12-19T06:34:32.981Z,11.56
2022-12-19T06:35:14.394Z,11.57
2022-12-19T06:36:13.941Z,11.68
2022-12-19T06:37:13.735Z,11.63
2022-12-19T06:38:14.307Z,11.58
2022-12-19T06:39:13.925Z,11.56
2022-12-19T06:40:13.691Z,11.50
2022-12-19T06:41:13.556Z,11.48
2022-12-19T06:42:14.553Z,11.50
2022-12-19T06:43:14.580Z,11.52
2022-12-19T06:44:14.155Z,11.53
2022-12-19T06:45:13.999Z,11.47
2022-12-19T06:46:13.469Z,11.50
2022-12-19T06:47:14.039Z,11.51
2022-12-19T06:48:13.777Z,11.53
2022-12-19T06:49:14.205Z,11.53
2022-12-19T06:50:14.324Z,11.51
2022-12-19T06:51:14.074Z,11.54
2022-12-19T06:52:13.233Z,11.53
2022-12-19T06:53:14.011Z,11.53
2022-12-19T06:54:13.957Z,11.61
2022-12-19T06:55:13.857Z,11.67
2022-12-19T06:56:12.996Z,11.63
2022-12-19T06:57:14.269Z,11.64
2022-12-19T06:58:13.779Z,11.72
2022-12-19T06:59:13.922Z,11.71
2022-12-19T07:00:14.692Z,11.71
2022-12-19T07:01:13.711Z,11.77
2022-12-19T07:02:14.334Z,11.76
2022-12-19T07:03:14.937Z,11.75
2022-12-19T07:04:14.824Z,11.70
2022-12-19T07:05:13.945Z,11.79
2022-12-19T07:06:14.034Z,11.71
2022-12-19T07:07:14.274Z,11.83
2022-12-19T07:08:14.726Z,11.89
2022-12-19T07:09:13.963Z,11.92
2022-12-19T07:10:19.165Z,11.97
2022-12-19T07:11:14.017Z,11.97
2022-12-19T07:12:19.181Z,12.02
2022-12-19T07:13:14.623Z,12.05
2022-12-19T07:14:13.902Z,12.07
2022-12-19T07:15:13.833Z,12.09
2022-12-19T07:16:14.227Z,12.06
2022-12-19T07:17:15.106Z,12.05
2022-12-19T07:18:14.092Z,12.18
2022-12-19T07:19:14.164Z,12.19
2022-12-19T07:20:19.622Z,12.19
2022-12-19T07:21:13.750Z,12.19
2022-12-19T07:22:21.873Z,12.21
2022-12-19T07:23:13.645Z,12.25
2022-12-19T07:24:14.625Z,12.30
2022-12-19T07:25:14.729Z,12.33
2022-12-19T07:26:13.473Z,12.39
2022-12-19T07:27:14.390Z,12.43
2022-12-19T07:28:21.965Z,12.43
2022-12-19T07:29:13.482Z,12.39
2022-12-19T07:30:14.715Z,12.39
2022-12-19T07:31:14.722Z,12.46
2022-12-19T07:32:13.587Z,12.44
2022-12-19T07:33:19.692Z,12.46
2022-12-19T07:34:13.576Z,12.50
2022-12-19T07:35:14.661Z,12.48
2022-12-19T07:36:14.294Z,12.5
2022-12-19T07:37:13.981Z,12.47
2022-12-19T07:38:13.516Z,12.43
2022-12-19T07:39:14.101Z,12.52
2022-12-19T07:40:13.828Z,12.59
2022-12-19T07:41:13.855Z,12.60
2022-12-19T07:42:13.676Z,12.63
2022-12-19T07:43:14.233Z,12.64
2022-12-19T07:44:13.948Z,12.70
2022-12-19T07:45:14.089Z,12.75
2022-12-19T07:46:13.570Z,12.76
2022-12-19T07:47:13.597Z,12.79
2022-12-19T07:48:14.779Z,12.78
2022-12-19T07:49:18.225Z,12.80
2022-12-19T07:50:14.712Z,12.84
2022-12-19T07:51:13.919Z,12.87
2022-12-19T07:52:13.633Z,12.87
2022-12-19T07:53:13.603Z,12.83
2022-12-19T07:54:14.406Z,12.87
2022-12-19T07:55:14.343Z,12.88
2022-12-19T07:56:14.047Z,12.90
2022-12-19T07:57:13.867Z,12.87
2022-12-19T07:58:13.229Z,12.87
2022-12-19T07:59:14.484Z,12.95
2022-12-19T08:00:15.019Z,13.00
2022-12-19T08:01:14.126Z,13.00
2022-12-19T08:02:14.377Z,12.99
2022-12-19T08:03:14.643Z,12.91
2022-12-19T08:04:13.899Z,12.92
2022-12-19T08:05:14.314Z,12.97
2022-12-19T08:06:14.613Z,13.06
2022-12-19T08:07:14.885Z,13.06
2022-12-19T08:08:13.535Z,13.03
2022-12-19T08:09:14.510Z,13.06
2022-12-19T08:10:14.280Z,13.09
2022-12-19T08:11:14.433Z,13.01
2022-12-19T08:12:14.727Z,13.02
2022-12-19T08:13:13.887Z,13.06
2022-12-19T08:14:14.212Z,13.11
2022-12-19T08:15:15.077Z,13.13
2022-12-19T08:16:14.251Z,13.17
2022-12-19T08:17:21.573Z,13.21
2022-12-19T08:18:13.615Z,13.20
2022-12-19T08:19:14.140Z,13.19
2022-12-19T08:20:14.299Z,13.21
2022-12-19T08:21:14.503Z,13.15
2022-12-19T08:22:13.718Z,13.15
2022-12-19T08:23:13.754Z,13.17
2022-12-19T08:24:13.709Z,13.14
2022-12-19T08:25:13.815Z,13.17
2022-12-19T08:26:14.236Z,13.17
2022-12-19T08:27:14.378Z,13.14
2022-12-19T08:28:14.562Z,13.22
2022-12-19T08:29:14.436Z,13.25
2022-12-19T08:30:14.884Z,13.19
2022-12-19T08:31:13.731Z,13.22
2022-12-19T08:32:20.225Z,13.30
2022-12-19T08:33:14.087Z,13.30
2022-12-19T08:34:13.603Z,13.33
2022-12-19T08:35:14.136Z,13.31
2022-12-19T08:36:14.321Z,13.25
2022-12-19T08:37:15.305Z,13.31
2022-12-19T08:38:15.534Z,13.31
2022-12-19T08:39:14.846Z,13.31
2022-12-19T08:40:15.053Z,13.31
2022-12-19T08:41:15.213Z,13.31
2022-12-19T08:42:14.048Z,13.36
2022-12-19T08:43:14.952Z,13.35
2022-12-19T08:44:15.357Z,13.32
2022-12-19T08:45:14.979Z,13.36
2022-12-19T08:47:14.916Z,13.43
2022-12-19T08:48:15.046Z,13.47
2022-12-19T08:49:13.754Z,13.43
2022-12-19T08:50:14.450Z,13.45
2022-12-19T08:51:13.967Z,13.48
2022-12-19T08:52:14.301Z,13.34
2022-12-19T08:53:14.396Z,13.35
2022-12-19T08:54:14.438Z,13.39
2022-12-19T08:55:13.840Z,13.37
2022-12-19T08:56:13.600Z,13.39
2022-12-19T08:57:13.826Z,13.40
2022-12-19T08:58:14.318Z,13.47
2022-12-19T08:59:15.886Z,13.51
2022-12-19T09:00:15.295Z,13.52
2022-12-19T09:01:14.792Z,13.51
2022-12-19T09:02:13.742Z,13.52
2022-12-19T09:03:13.855Z,13.49
2022-12-19T09:06:02.335Z,13.53
2022-12-19T09:06:05.259Z,13.50
2022-12-19T09:06:25.560Z,13.49
2022-12-19T09:07:15.243Z,13.53
2022-12-19T09:08:13.535Z,13.56
2022-12-19T09:09:14.877Z,13.56
2022-12-19T09:10:13.973Z,13.60
2022-12-19T09:11:14.515Z,13.68
2022-12-19T09:12:14.516Z,13.66
2022-12-19T09:13:14.365Z,13.67
2022-12-19T09:14:14.524Z,13.70
2022-12-19T09:15:13.873Z,13.68
2022-12-19T09:16:13.867Z,13.68
2022-12-19T09:17:14.148Z,13.65
2022-12-19T09:18:14.446Z,13.68
2022-12-19T09:19:13.924Z,13.68
2022-12-19T09:20:19.639Z,13.73
2022-12-19T09:21:14.074Z,13.76
2022-12-19T09:22:14.116Z,13.78
2022-12-19T09:23:14.534Z,13.81
2022-12-19T09:24:13.744Z,13.83
2022-12-19T09:25:13.911Z,13.87
2022-12-19T09:26:13.845Z,13.85
2022-12-19T09:27:14.638Z,13.84
2022-12-19T09:28:27.860Z,13.78
2022-12-19T09:29:21.015Z,13.78
2022-12-19T09:30:15.084Z,13.76
2022-12-19T09:31:14.417Z,13.77
2022-12-19T09:32:13.728Z,13.79
2022-12-19T09:33:13.941Z,13.75
2022-12-19T09:34:14.395Z,13.77
2022-12-19T09:35:14.794Z,13.79
2022-12-19T09:36:13.642Z,13.77
2022-12-19T09:37:16.646Z,13.78
2022-12-19T09:38:14.684Z,13.77
2022-12-19T09:39:20.058Z,13.83
2022-12-19T09:40:14.083Z,13.91
2022-12-19T09:41:19.352Z,13.84
2022-12-19T09:42:14.443Z,13.77
2022-12-19T09:43:14.780Z,13.80
2022-12-19T09:44:14.281Z,13.84
2022-12-19T09:45:25.911Z,13.80
2022-12-19T09:46:14.495Z,13.91
2022-12-19T09:47:14.885Z,13.93
2022-12-19T09:48:23.593Z,13.94
2022-12-19T09:49:14.210Z,13.96
2022-12-19T09:50:14.145Z,13.93
2022-12-19T09:51:13.652Z,13.88
2022-12-19T09:52:13.768Z,13.89
2022-12-19T09:53:13.624Z,13.86
2022-12-19T09:54:13.496Z,13.89
2022-12-19T09:55:16.853Z,13.90
2022-12-19T09:56:14.601Z,13.90
2022-12-19T09:57:14.309Z,13.93
2022-12-19T09:58:14.718Z,13.93
2022-12-19T09:59:14.073Z,13.93
2022-12-19T10:00:14.621Z,13.97
2022-12-19T10:01:14.689Z,13.92
2022-12-19T10:02:14.633Z,13.95
2022-12-19T10:03:14.496Z,13.97
2022-12-19T10:04:14.059Z,13.94
2022-12-19T10:05:28.400Z,13.99
2022-12-19T10:06:58.113Z,14.06
2022-12-19T10:07:35.394Z,14.11
2022-12-19T10:08:14.334Z,14.14
2022-12-19T10:10:08.521Z,14.15
2022-12-19T10:12:16.946Z,14.18
2022-12-19T10:12:43.379Z,14.13
2022-12-19T10:12:45.698Z,14.10
2022-12-19T10:13:16.560Z,14.10
2022-12-19T10:14:13.828Z,14.09
2022-12-19T10:15:16.032Z,14.12
2022-12-19T10:16:14.526Z,14.05
2022-12-19T10:17:24.805Z,14.09
2022-12-19T10:18:16.032Z,14.10
2022-12-19T10:19:15.281Z,14.12
2022-12-19T10:20:15.360Z,14.10
2022-12-19T10:21:15.453Z,14.11
2022-12-19T10:22:18.938Z,14.17
2022-12-19T10:23:14.472Z,14.15
2022-12-19T10:24:15.565Z,14.17
2022-12-19T10:25:14.822Z,14.08
2022-12-19T10:26:14.822Z,14.11
2022-12-19T10:27:14.975Z,14.17
2022-12-19T10:28:14.613Z,14.22
2022-12-19T10:29:14.496Z,14.26
2022-12-19T10:30:14.495Z,14.31
2022-12-19T10:31:20.663Z,14.32
2022-12-19T10:32:14.542Z,14.35
2022-12-19T10:33:20.198Z,14.39
2022-12-19T10:34:15.380Z,14.40
2022-12-19T10:35:14.173Z,14.46
2022-12-19T10:36:13.993Z,14.5
2022-12-19T10:37:26.588Z,14.5
2022-12-19T10:38:14.072Z,14.52
2022-12-19T10:39:15.344Z,14.58
2022-12-19T10:40:27.189Z,14.60
2022-12-19T10:41:14.828Z,14.53
2022-12-19T10:42:14.699Z,14.55
2022-12-19T10:43:19.129Z,14.60
2022-12-19T10:44:13.518Z,14.62
2022-12-19T10:45:14.924Z,14.63
2022-12-19T10:46:13.755Z,14.56
2022-12-19T10:47:13.852Z,14.52
2022-12-19T10:48:13.820Z,14.52
2022-12-19T10:49:13.929Z,14.57
2022-12-19T10:50:14.317Z,14.65
2022-12-19T10:51:14.325Z,14.73
2022-12-19T10:52:14.213Z,14.65
2022-12-19T10:53:13.794Z,14.57
2022-12-19T10:54:13.718Z,14.64
2022-12-19T10:55:13.615Z,14.66
2022-12-19T10:56:13.780Z,14.71
2022-12-19T10:57:14.226Z,14.78
2022-12-19T10:58:13.849Z,14.77
2022-12-19T10:59:13.801Z,14.77
2022-12-19T11:00:14.543Z,14.78
2022-12-19T11:01:13.838Z,14.78
2022-12-19T11:02:14.203Z,14.80
2022-12-19T11:03:16.786Z,14.75
2022-12-19T11:04:15.197Z,14.67
2022-12-19T11:05:14.714Z,14.71
2022-12-19T11:06:13.788Z,14.76
2022-12-19T11:07:13.713Z,14.76
2022-12-19T11:08:13.979Z,14.78
2022-12-19T11:09:14.199Z,14.79
2022-12-19T11:11:26.141Z,14.78
2022-12-19T11:14:23.314Z,14.77
2022-12-19T11:16:38.264Z,14.77
2022-12-19T11:18:51.171Z,14.89
2022-12-19T11:19:15.754Z,14.78
2022-12-19T11:19:45.189Z,14.81
2022-12-19T11:21:58.855Z,14.77
2022-12-19T11:23:54.189Z,14.77
2022-12-19T11:27:51.278Z,14.76
2022-12-19T11:29:19.697Z,14.82
2022-12-19T11:29:30.743Z,14.92
2022-12-19T11:29:32.146Z,14.94
2022-12-19T11:29:34.683Z,14.76
2022-12-19T11:29:37.561Z,14.81
2022-12-19T11:29:37.685Z,14.90
2022-12-19T11:29:38.399Z,14.81
2022-12-19T11:29:40.286Z,14.93
2022-12-19T11:30:34.368Z,14.97
2022-12-19T11:30:46.771Z,14.87
2022-12-19T11:30:47.444Z,14.96
2022-12-19T11:31:53.012Z,14.97
2022-12-19T11:32:31.547Z,14.98
2022-12-19T11:32:40.284Z,15.01
2022-12-19T11:33:13.719Z,15
2022-12-19T11:34:14.199Z,14.99
2022-12-19T11:35:14.369Z,14.94
2022-12-19T11:36:13.901Z,14.97
2022-12-19T11:37:14.039Z,14.94
2022-12-19T11:38:14.009Z,15.02
2022-12-19T11:39:14.596Z,15.10
2022-12-19T11:40:14.205Z,15.13
2022-12-19T11:41:14.582Z,15.20
2022-12-19T11:42:13.520Z,15.22
2022-12-19T11:43:42.427Z,15.27
2022-12-19T11:44:14.504Z,15.30
2022-12-19T11:45:14.424Z,15.31
2022-12-19T11:46:19.427Z,15.35
2022-12-19T11:47:13.847Z,15.33
2022-12-19T11:48:13.781Z,15.38
2022-12-19T11:49:14.151Z,15.40
2022-12-19T11:50:14.654Z,15.42
2022-12-19T11:51:14.656Z,15.35
2022-12-19T11:52:36.972Z,15.35
2022-12-19T11:53:18.890Z,15.36
2022-12-19T11:54:14.616Z,15.30
2022-12-19T11:55:15.120Z,15.23
2022-12-19T11:56:16.565Z,15.23
2022-12-19T11:57:13.726Z,15.22
2022-12-19T11:58:13.519Z,15.23
2022-12-19T11:59:13.766Z,15.25
2022-12-19T12:00:14.417Z,15.34
2022-12-19T12:01:14.089Z,15.37
2022-12-19T12:02:14.870Z,15.35
2022-12-19T12:03:14.260Z,15.35
2022-12-19T12:04:14.033Z,15.36
2022-12-19T12:05:14.907Z,15.36
2022-12-19T12:06:13.748Z,15.34
2022-12-19T12:07:39.276Z,15.31
2022-12-19T12:10:17.850Z,15.38
2022-12-19T12:13:14.839Z,15.36
2022-12-19T12:14:53.218Z,15.39
2022-12-19T12:17:01.883Z,15.38
2022-12-19T12:20:43.332Z,15.38
2022-12-19T12:20:51.585Z,15.41
2022-12-19T12:22:47.328Z,15.39
2022-12-19T12:25:11.488Z,15.38
2022-12-19T12:26:25.935Z,15.35
2022-12-19T12:31:05.688Z,15.31
2022-12-19T12:31:06.028Z,15.36
2022-12-19T12:31:12.321Z,15.31
2022-12-19T12:31:18.580Z,15.39
2022-12-19T12:31:27.719Z,15.32
2022-12-19T12:31:41.610Z,15.36
2022-12-19T12:31:41.757Z,15.40
2022-12-19T12:31:44.252Z,15.42
2022-12-19T12:31:45.129Z,15.44
2022-12-19T12:31:48.338Z,15.38
2022-12-19T12:31:51.725Z,15.42
2022-12-19T12:31:52.361Z,15.39
2022-12-19T12:32:02.058Z,15.42
2022-12-19T12:32:05.580Z,15.43
2022-12-19T12:35:40.782Z,15.49
2022-12-19T12:35:56.945Z,15.52
2022-12-19T12:37:47.868Z,15.47
2022-12-19T12:37:54.133Z,15.44
2022-12-19T12:38:30.401Z,15.45
2022-12-19T12:39:18.327Z,15.48
2022-12-19T12:40:14.105Z,15.52
2022-12-19T12:41:13.731Z,15.60
2022-12-19T12:42:13.519Z,15.58
2022-12-19T12:43:14.796Z,15.59
2022-12-19T12:44:14.131Z,15.57
2022-12-19T12:45:14.561Z,15.60
2022-12-19T12:46:14.420Z,15.64
2022-12-19T12:47:14.088Z,15.65
2022-12-19T12:48:13.968Z,15.61
2022-12-19T12:49:14.314Z,15.63
2022-12-19T12:50:14.206Z,15.66
2022-12-19T12:51:14.112Z,15.70
2022-12-19T12:52:14.176Z,15.73
2022-12-19T12:53:14.169Z,15.79
2022-12-19T12:54:14.029Z,15.85
2022-12-19T12:55:14.161Z,15.88
2022-12-19T12:56:14.193Z,15.93
2022-12-19T12:57:14.940Z,15.94